Log in Register

Login to your account

Username *
Password *
Remember Me

Create an account

Fields marked with an asterisk (*) are required.
Name *
Username *
Password *
Verify password *
Email *
Verify email *

METAR/TAF de Chambéry

[source: ADDS]
METAR
LFLB 080330Z AUTO 15003KT CAVOK 11/10 Q1018 NOSIG =
TAF LFLB 072300Z 0800/0824 36004KT CAVOK
TAF
TAF LFLB 072300Z 0800/0824 36004KT CAVOK =
SR / SS: 03:56 / 19:27 UTC (Lever/Coucher du soleil le 2020-07-08)

 

Webcam de l'Aéroclub - Parking Lima et SW (réactualisation : 5min)

Cliquer ici pour une animation sur les 3 dernières heures / Cliquer sur l'image pour l'agrandir dans une nouvelle fenêtre

 

Webcam de l'Aéroclub - Manche à air et WA (réactualisation : 5min)

Cliquer ici pour une animation sur les 3 dernières heures / Cliquer sur l'image pour l'agrandir dans une nouvelle fenêtre

 

JSN Boot template designed by JoomlaShine.com